createdAt,value
2023-04-02T00:02:33.512Z,6.25
2023-04-02T00:07:41.739Z,6.18
2023-04-02T00:13:02.585Z,6.06
2023-04-02T00:18:11.723Z,5.91
2023-04-02T00:23:18.756Z,5.78
2023-04-02T00:28:25.999Z,5.66
2023-04-02T00:33:34.301Z,5.57
2023-04-02T00:38:43.816Z,5.47
2023-04-02T00:43:52.003Z,5.39
2023-04-02T00:49:02.302Z,5.31
2023-04-02T00:54:15.800Z,5.26
2023-04-02T00:59:29.686Z,5.19
2023-04-02T01:04:37.234Z,5.11
2023-04-02T01:09:58.599Z,5.01
2023-04-02T01:15:13.052Z,4.92
2023-04-02T01:20:53.151Z,4.85
2023-04-02T01:26:06.409Z,4.80
2023-04-02T01:31:13.659Z,4.74
2023-04-02T01:36:27.996Z,4.71
2023-04-02T01:41:40.462Z,4.70
2023-04-02T01:46:51.009Z,4.69
2023-04-02T01:51:58.332Z,4.67
2023-04-02T01:57:08.712Z,4.64
2023-04-02T02:02:16.410Z,4.60
2023-04-02T02:07:24.229Z,4.58
2023-04-02T02:12:33.386Z,4.51
2023-04-02T02:17:40.482Z,4.44
2023-04-02T02:22:49.615Z,4.38
2023-04-02T02:28:03.829Z,4.30
2023-04-02T02:33:17.055Z,4.24
2023-04-02T02:38:36.340Z,4.21
2023-04-02T02:43:54.276Z,4.16
2023-04-02T02:49:04.517Z,4.13
2023-04-02T02:54:12.069Z,4.11
2023-04-02T02:59:20.338Z,4.08
2023-04-02T03:04:30.737Z,4.04
2023-04-02T03:09:47.159Z,3.97
2023-04-02T03:15:03.355Z,3.82
2023-04-02T03:20:18.867Z,3.66
2023-04-02T03:25:34.292Z,3.54
2023-04-02T03:30:47.603Z,3.49
2023-04-02T03:36:02.542Z,3.42
2023-04-02T03:41:17.392Z,3.33
2023-04-02T03:46:32.560Z,3.26
2023-04-02T03:51:51.132Z,3.22
2023-04-02T03:56:58.224Z,3.18
2023-04-02T04:02:15.866Z,3.15
2023-04-02T04:07:32.282Z,3.08
2023-04-02T04:12:45.604Z,3.03
2023-04-02T04:18:02.127Z,3.01
2023-04-02T04:23:25.962Z,2.88
2023-04-02T04:28:39.996Z,2.83
2023-04-02T04:33:54.876Z,2.81
2023-04-02T04:39:21.580Z,2.83
2023-04-02T04:44:38.677Z,2.92
2023-04-02T04:49:48.886Z,3.00
2023-04-02T04:54:56.498Z,3.07
2023-04-02T05:00:15.788Z,3.19
2023-04-02T05:05:29.381Z,3.23
2023-04-02T05:10:44.280Z,3.26
2023-04-02T05:16:02.751Z,3.27
2023-04-02T05:21:20.451Z,3.27
2023-04-02T05:26:33.401Z,3.28
2023-04-02T05:31:48.841Z,3.32
2023-04-02T05:36:57.125Z,3.34
2023-04-02T05:42:08.314Z,3.34
2023-04-02T05:47:51.831Z,3.35
2023-04-02T05:53:07.866Z,3.40
2023-04-02T05:58:35.371Z,3.40
2023-04-02T06:03:55.735Z,3.40
2023-04-02T06:09:11.141Z,3.42
2023-04-02T06:14:19.585Z,3.41
2023-04-02T06:19:32.445Z,3.44
2023-04-02T06:24:41.406Z,3.47
2023-04-02T06:29:52.985Z,3.46
2023-04-02T06:35:00.543Z,3.49
2023-04-02T06:40:22.298Z,3.51
2023-04-02T06:45:35.898Z,3.50
2023-04-02T06:51:07.657Z,3.55
2023-04-02T06:56:32.046Z,3.59
2023-04-02T07:01:43.097Z,3.67
2023-04-02T07:06:51.208Z,3.76
2023-04-02T07:11:58.893Z,3.82
2023-04-02T07:17:06.479Z,3.82
2023-04-02T07:22:13.415Z,3.86
2023-04-02T07:27:22.633Z,3.92
2023-04-02T07:32:29.589Z,3.95
2023-04-02T07:37:36.537Z,3.93
2023-04-02T07:42:43.401Z,3.94
2023-04-02T07:47:50.378Z,3.95
2023-04-02T07:52:57.520Z,3.99
2023-04-02T07:58:04.401Z,4.08
2023-04-02T08:03:14.393Z,4.16
2023-04-02T08:08:21.668Z,4.23
2023-04-02T08:13:29.005Z,4.24
2023-04-02T08:18:36.206Z,4.22
2023-04-02T08:23:43.649Z,4.21
2023-04-02T08:28:50.524Z,4.14
2023-04-02T08:33:57.573Z,4.19
2023-04-02T08:39:05.184Z,4.29
2023-04-02T08:44:24.178Z,4.42
2023-04-02T08:49:36.424Z,4.61
2023-04-02T08:54:44.648Z,4.92
2023-04-02T08:59:58.184Z,5.19
2023-04-02T09:05:09.299Z,5.28
2023-04-02T09:10:18.390Z,5.14
2023-04-02T09:15:34.869Z,5.02
2023-04-02T09:20:42.113Z,4.90
2023-04-02T09:26:03.456Z,4.84
2023-04-02T09:31:18.358Z,4.75
2023-04-02T09:36:37.190Z,4.71
2023-04-02T09:41:48.079Z,4.64
2023-04-02T09:47:03.988Z,4.58
2023-04-02T09:52:29.859Z,4.56
2023-04-02T09:57:38.333Z,4.55
2023-04-02T10:02:46.792Z,4.51
2023-04-02T10:07:55.507Z,4.48
2023-04-02T10:13:08.010Z,4.51
2023-04-02T10:18:22.283Z,4.58
2023-04-02T10:23:31.854Z,4.63
2023-04-02T10:28:51.940Z,4.66
2023-04-02T10:34:07.550Z,4.73
2023-04-02T10:39:21.215Z,4.82
2023-04-02T10:44:41.473Z,4.91
2023-04-02T10:49:55.724Z,5.03
2023-04-02T10:55:07.381Z,5.09
2023-04-02T11:00:26.024Z,5.02
2023-04-02T11:05:43.991Z,4.94
2023-04-02T11:10:57.079Z,4.88
2023-04-02T11:16:04.937Z,4.83
2023-04-02T11:21:54.895Z,4.82
2023-04-02T11:27:16.518Z,4.87
2023-04-02T11:32:35.292Z,5.03
2023-04-02T11:37:44.750Z,5.04
2023-04-02T11:42:52.833Z,5.05
2023-04-02T11:48:27.151Z,5.18
2023-04-02T11:53:36.100Z,5.28
2023-04-02T11:58:54.976Z,5.26
2023-04-02T12:04:36.738Z,5.14
2023-04-02T12:09:50.825Z,5.02
2023-04-02T12:14:58.909Z,4.95
2023-04-02T12:20:21.591Z,4.97
2023-04-02T12:25:33.046Z,4.98
2023-04-02T12:30:41.562Z,5.00
2023-04-02T12:35:50.375Z,5.07
2023-04-02T12:40:58.700Z,5.12
2023-04-02T12:46:08.801Z,5.18
2023-04-02T12:51:17.245Z,5.20
2023-04-02T12:56:25.889Z,5.26
2023-04-02T13:01:34.030Z,5.29
2023-04-02T13:06:44.275Z,5.27
2023-04-02T13:11:51.313Z,5.28
2023-04-02T13:16:58.532Z,5.31
2023-04-02T13:22:28.686Z,5.39
2023-04-02T13:27:35.784Z,5.45
2023-04-02T13:32:42.762Z,5.48
2023-04-02T13:37:50.021Z,5.50
2023-04-02T13:42:57.078Z,5.55
2023-04-02T13:48:04.239Z,5.59
2023-04-02T13:53:20.784Z,5.62
2023-04-02T13:58:27.855Z,5.67
2023-04-02T14:03:35.668Z,5.72
2023-04-02T14:08:55.878Z,5.76
2023-04-02T14:14:19.556Z,5.73
2023-04-02T14:19:37.336Z,5.67
2023-04-02T14:24:54.675Z,5.65
2023-04-02T14:30:08.109Z,5.64
2023-04-02T14:35:24.137Z,5.60
2023-04-02T14:40:37.985Z,5.56
2023-04-02T14:46:02.911Z,5.55
2023-04-02T14:51:17.075Z,5.52
2023-04-02T14:56:25.720Z,5.51
2023-04-02T15:01:39.478Z,5.52
2023-04-02T15:06:50.345Z,5.51
2023-04-02T15:12:01.128Z,5.49
2023-04-02T15:17:11.232Z,5.49
2023-04-02T15:22:30.845Z,5.48
2023-04-02T15:27:53.091Z,5.47
2023-04-02T15:33:20.659Z,5.47
2023-04-02T15:38:35.174Z,5.47
2023-04-02T15:43:46.055Z,5.46
2023-04-02T15:49:06.245Z,5.47
2023-04-02T15:54:25.959Z,5.46
2023-04-02T15:59:58.919Z,5.45
2023-04-02T16:05:16.113Z,5.43
2023-04-02T16:10:41.003Z,5.40
2023-04-02T16:15:54.808Z,5.40
2023-04-02T16:21:03.956Z,5.37
2023-04-02T16:26:24.849Z,5.31
2023-04-02T16:31:39.551Z,5.24
2023-04-02T16:36:56.081Z,5.17
2023-04-02T16:42:16.599Z,5.11
2023-04-02T16:47:40.300Z,5.06
2023-04-02T16:52:54.249Z,5.01
2023-04-02T16:58:14.077Z,4.98
2023-04-02T17:03:40.431Z,4.93
2023-04-02T17:08:54.773Z,4.88
2023-04-02T17:14:07.243Z,4.84
2023-04-02T17:19:16.653Z,4.81
2023-04-02T17:24:31.013Z,4.78
2023-04-02T17:29:39.872Z,4.77
2023-04-02T17:34:46.866Z,4.79
2023-04-02T17:40:03.092Z,4.78
2023-04-02T17:45:18.465Z,4.77
2023-04-02T17:50:39.502Z,4.79
2023-04-02T17:55:57.519Z,4.77
2023-04-02T18:01:13.394Z,4.78
2023-04-02T18:06:25.753Z,4.79
2023-04-02T18:11:43.269Z,4.79
2023-04-02T18:16:58.141Z,4.76
2023-04-02T18:22:14.497Z,4.73
2023-04-02T18:27:31.984Z,4.73
2023-04-02T18:32:57.284Z,4.72
2023-04-02T18:38:20.186Z,4.72
2023-04-02T18:43:38.311Z,4.73
2023-04-02T18:48:53.796Z,4.68
2023-04-02T18:54:16.430Z,4.66
2023-04-02T18:59:39.519Z,4.65
2023-04-02T19:04:53.014Z,4.65
2023-04-02T19:10:27.639Z,4.63
2023-04-02T19:15:44.453Z,4.62
2023-04-02T19:20:58.076Z,4.61
2023-04-02T19:26:09.723Z,4.60
2023-04-02T19:31:30.539Z,4.63
2023-04-02T19:36:49.567Z,4.65
2023-04-02T19:42:03.725Z,4.66
2023-04-02T19:47:14.259Z,4.66
2023-04-02T19:52:21.926Z,4.65
2023-04-02T19:57:29.221Z,4.64
2023-04-02T20:02:36.116Z,4.61
2023-04-02T20:07:43.373Z,4.58
2023-04-02T20:12:50.637Z,4.54
2023-04-02T20:17:57.759Z,4.51
2023-04-02T20:23:04.727Z,4.48
2023-04-02T20:28:12.210Z,4.43
2023-04-02T20:33:19.653Z,4.39
2023-04-02T20:38:27.510Z,4.35
2023-04-02T20:43:36.032Z,4.29
2023-04-02T20:48:43.411Z,4.21
2023-04-02T20:53:50.412Z,4.12
2023-04-02T20:58:57.651Z,4.01
2023-04-02T21:04:06.045Z,3.92
2023-04-02T21:09:17.292Z,3.83
2023-04-02T21:14:24.222Z,3.78
2023-04-02T21:19:32.904Z,3.74
2023-04-02T21:24:39.872Z,3.67
2023-04-02T21:29:46.857Z,3.63
2023-04-02T21:34:54.994Z,3.60
2023-04-02T21:40:01.976Z,3.53
2023-04-02T21:45:10.527Z,3.45
2023-04-02T21:50:17.557Z,3.38
2023-04-02T21:55:24.405Z,3.33
2023-04-02T22:00:31.332Z,3.26
2023-04-02T22:05:39.174Z,3.23
2023-04-02T22:10:46.563Z,3.17
2023-04-02T22:15:53.517Z,3.11
2023-04-02T22:21:01.951Z,3.04
2023-04-02T22:26:10.533Z,2.98
2023-04-02T22:31:19.645Z,2.92
2023-04-02T22:36:28.940Z,2.84
2023-04-02T22:41:36.345Z,2.75
2023-04-02T22:46:43.266Z,2.66
2023-04-02T22:51:50.422Z,2.56
2023-04-02T22:56:57.396Z,2.43
2023-04-02T23:02:04.284Z,2.29
2023-04-02T23:07:11.497Z,2.14
2023-04-02T23:12:18.589Z,1.98
2023-04-02T23:17:25.580Z,1.79
2023-04-02T23:22:32.601Z,1.64
2023-04-02T23:27:39.531Z,1.49
2023-04-02T23:32:46.519Z,1.36
2023-04-02T23:37:53.468Z,1.28
2023-04-02T23:43:00.416Z,1.19
2023-04-02T23:48:07.959Z,1.09
2023-04-02T23:53:16.457Z,1.00
2023-04-02T23:58:23.413Z,0.94
